Terminal Aerodrome Forecast
Issued by NWS

Home | Current Version | Previous Version | Graphics & Text | Print | Product List | Glossary On
Versions: 1 2 3 4 5 6 7 8 9 10 11 12 13 14 15 16 17 18 19 20 21
000
FTUS43 KGRB 170520
TAFAUW
TAF
KAUW 170520Z 1706/1806 12011G18KT 6SM -SHRA BR SCT008 OVC020
      WS015/16040KT
      TEMPO 1706/1708 3SM -SHRA BR BKN008 BKN015
     FM171600 20009KT 4SM -SHRA BR OVC012 PROB30 1719/1722 4SM TSRA
      BKN015CB
     FM172200 26010G17KT P6SM -SHRA BKN008=

USA.gov is the U.S. government's official web portal to all federal, state and local government web resources and services.